createdAt,value
2019-02-03T00:03:33.017Z,102.00
2019-02-03T00:06:21.810Z,100.07
2019-02-03T00:09:30.114Z,98.07
2019-02-03T00:12:18.902Z,90.43
2019-02-03T00:15:28.620Z,103.42
2019-02-03T00:18:17.434Z,93.27
2019-02-03T00:21:06.227Z,93.43
2019-02-03T00:23:55.037Z,97.67
2019-02-03T00:26:43.836Z,97.80
2019-02-03T00:29:33.419Z,95.97
2019-02-03T00:32:22.221Z,85.40
2019-02-03T00:38:25.999Z,90.87
2019-02-03T00:41:16.533Z,84.47
2019-02-03T00:47:33.950Z,77.53
2019-02-03T00:50:22.742Z,92.65
2019-02-03T00:53:11.614Z,88.15
2019-02-03T00:56:02.147Z,80.80
2019-02-03T00:58:50.956Z,84.77
2019-02-03T01:01:41.460Z,81.97
2019-02-03T01:04:30.265Z,100.85
2019-02-03T01:07:27.075Z,77.90
2019-02-03T01:10:30.579Z,69.72
2019-02-03T01:13:19.552Z,79.17
2019-02-03T01:16:08.343Z,69.42
2019-02-03T01:21:51.924Z,71.50
2019-02-03T01:27:34.633Z,70.33
2019-02-03T01:30:17.692Z,65.07
2019-02-03T01:33:06.492Z,75.17
2019-02-03T01:35:57.019Z,60.83
2019-02-03T01:38:45.825Z,75.27
2019-02-03T01:41:34.626Z,73.33
2019-02-03T01:44:23.440Z,68.33
2019-02-03T01:50:19.981Z,75.50
2019-02-03T01:53:08.796Z,72.73
2019-02-03T01:55:57.601Z,75.13
2019-02-03T01:58:48.136Z,71.40
2019-02-03T02:01:36.933Z,67.73
2019-02-03T02:04:27.479Z,84.60
2019-02-03T02:07:16.270Z,73.92
2019-02-03T02:10:25.987Z,82.20
2019-02-03T02:13:14.791Z,83.07
2019-02-03T02:16:04.002Z,72.47
2019-02-03T02:18:52.803Z,76.97
2019-02-03T02:21:41.598Z,76.70
2019-02-03T02:24:30.408Z,99.73
2019-02-03T02:27:20.933Z,85.33
2019-02-03T02:30:02.114Z,85.63
2019-02-03T02:35:45.612Z,88.83
2019-02-03T02:38:34.406Z,74.87
2019-02-03T02:41:23.282Z,85.97
2019-02-03T02:44:12.081Z,74.43
2019-02-03T02:47:00.904Z,94.10
2019-02-03T02:49:49.680Z,85.80
2019-02-03T02:52:57.588Z,76.45
2019-02-03T02:55:46.373Z,96.30
2019-02-03T02:58:35.180Z,100.77
2019-02-03T03:01:23.974Z,69.87
2019-02-03T03:04:12.784Z,80.73
2019-02-03T03:07:01.809Z,78.85
2019-02-03T03:09:50.634Z,70.30
2019-02-03T03:12:39.410Z,76.20
2019-02-03T03:15:28.225Z,69.63
2019-02-03T03:21:24.763Z,74.70
2019-02-03T03:24:13.624Z,73.78
2019-02-03T03:27:02.451Z,72.40
2019-02-03T03:29:51.239Z,56.40
2019-02-03T03:32:33.241Z,70.43
2019-02-03T03:35:22.171Z,69.30
2019-02-03T03:38:10.976Z,71.00
2019-02-03T03:40:59.835Z,69.90
2019-02-03T03:43:50.438Z,62.90
2019-02-03T03:46:39.251Z,75.07
2019-02-03T03:49:29.765Z,64.47
2019-02-03T03:52:18.642Z,72.33
2019-02-03T03:58:24.867Z,62.62
2019-02-03T04:01:13.741Z,56.20
2019-02-03T04:04:02.594Z,64.53
2019-02-03T04:06:51.406Z,64.20
2019-02-03T04:09:40.199Z,65.90
2019-02-03T04:12:29.010Z,54.47
2019-02-03T04:15:19.359Z,65.60
2019-02-03T04:18:08.148Z,71.47
2019-02-03T04:20:56.957Z,58.30
2019-02-03T04:23:47.497Z,58.73
2019-02-03T04:26:55.333Z,56.40
2019-02-03T04:29:44.139Z,53.97
2019-02-03T04:32:25.836Z,53.10
2019-02-03T04:35:14.624Z,59.38
2019-02-03T04:38:03.438Z,60.07
2019-02-03T04:40:53.946Z,47.07
2019-02-03T04:43:42.753Z,56.83
2019-02-03T04:46:33.266Z,51.67
2019-02-03T04:49:41.096Z,64.13
2019-02-03T04:52:30.183Z,55.90
2019-02-03T04:55:39.903Z,60.47
2019-02-03T04:58:28.712Z,53.07
2019-02-03T05:01:17.499Z,51.93
2019-02-03T05:04:06.312Z,54.63
2019-02-03T05:06:55.367Z,57.00
2019-02-03T05:09:37.332Z,60.30
2019-02-03T05:12:26.206Z,58.00
2019-02-03T05:15:35.923Z,62.87
2019-02-03T05:18:24.723Z,64.40
2019-02-03T05:21:13.526Z,57.40
2019-02-03T05:24:02.343Z,65.47
2019-02-03T05:26:51.145Z,52.63
2019-02-03T05:29:39.982Z,56.63
2019-02-03T05:32:28.798Z,63.60
2019-02-03T05:35:17.582Z,57.80
2019-02-03T05:38:06.459Z,63.10
2019-02-03T05:40:55.259Z,60.23
2019-02-03T05:43:44.067Z,50.00
2019-02-03T05:46:32.861Z,58.07
2019-02-03T05:49:23.383Z,64.40
2019-02-03T05:52:12.178Z,61.03
2019-02-03T05:55:02.708Z,56.23
2019-02-03T05:57:51.495Z,66.05
2019-02-03T06:03:39.610Z,51.47
2019-02-03T06:06:30.137Z,50.47
2019-02-03T06:09:18.926Z,49.00
2019-02-03T06:12:00.333Z,49.00
2019-02-03T06:14:49.143Z,42.63
2019-02-03T06:17:37.927Z,69.07
2019-02-03T06:20:26.800Z,51.37
2019-02-03T06:23:15.593Z,46.97
2019-02-03T06:26:04.404Z,52.53
2019-02-03T06:28:53.191Z,50.87
2019-02-03T06:31:41.997Z,52.97
2019-02-03T06:34:30.793Z,57.67
2019-02-03T06:37:21.321Z,47.90
2019-02-03T06:43:26.143Z,49.57
2019-02-03T06:46:33.985Z,48.83
2019-02-03T06:55:26.264Z,50.77
2019-02-03T06:58:15.085Z,57.70
2019-02-03T07:01:04.141Z,54.17
2019-02-03T07:03:52.986Z,54.57
2019-02-03T07:06:41.866Z,56.57
2019-02-03T07:09:31.046Z,48.07
2019-02-03T07:12:12.759Z,55.20
2019-02-03T07:15:01.572Z,56.00
2019-02-03T07:17:50.364Z,53.97
2019-02-03T07:20:40.884Z,49.48
2019-02-03T07:23:29.679Z,54.07
2019-02-03T07:26:18.487Z,51.47
2019-02-03T07:28:59.899Z,56.67
2019-02-03T07:31:48.709Z,47.90
2019-02-03T07:34:37.516Z,49.00
2019-02-03T07:37:26.307Z,40.87
2019-02-03T07:40:36.019Z,49.77
2019-02-03T07:43:24.808Z,49.03
2019-02-03T07:46:13.613Z,44.20
2019-02-03T07:52:11.806Z,43.17
2019-02-03T07:55:00.707Z,48.98
2019-02-03T07:57:49.482Z,48.10
2019-02-03T08:00:40.295Z,50.70
2019-02-03T08:03:29.091Z,49.60
2019-02-03T08:09:32.569Z,54.65
2019-02-03T08:12:21.380Z,43.90
2019-02-03T08:15:02.843Z,51.70
2019-02-03T08:17:51.728Z,54.37
2019-02-03T08:20:40.507Z,44.60
2019-02-03T08:23:29.315Z,46.30
2019-02-03T08:26:18.121Z,48.23
2019-02-03T08:32:35.323Z,43.85
2019-02-03T08:35:24.135Z,49.90
2019-02-03T08:38:12.943Z,50.57
2019-02-03T08:41:01.734Z,51.88
2019-02-03T08:43:50.554Z,49.43
2019-02-03T08:46:39.337Z,47.70
2019-02-03T08:49:47.174Z,41.30
2019-02-03T08:52:35.959Z,47.17
2019-02-03T08:55:24.771Z,45.50
2019-02-03T08:58:13.556Z,54.98
2019-02-03T09:01:02.359Z,41.37
2019-02-03T09:03:51.158Z,44.03
2019-02-03T09:06:39.967Z,44.07
2019-02-03T09:09:28.758Z,41.23
2019-02-03T09:12:17.563Z,45.20
2019-02-03T09:15:27.260Z,41.55
2019-02-03T09:18:16.081Z,43.80
2019-02-03T09:21:05.139Z,53.47
2019-02-03T09:23:53.939Z,41.87
2019-02-03T09:26:42.729Z,46.70
2019-02-03T09:29:31.549Z,44.43
2019-02-03T09:32:12.928Z,37.40
2019-02-03T09:35:01.718Z,46.17
2019-02-03T09:37:52.242Z,38.70
2019-02-03T09:40:41.029Z,36.67
2019-02-03T09:43:31.555Z,41.10
2019-02-03T09:46:20.410Z,45.77
2019-02-03T09:49:09.221Z,44.07
2019-02-03T09:51:58.005Z,45.57
2019-02-03T09:54:46.814Z,44.15
2019-02-03T09:57:35.601Z,46.87
2019-02-03T10:00:45.343Z,40.87
2019-02-03T10:03:34.191Z,47.50
2019-02-03T10:06:23.002Z,41.80
2019-02-03T10:09:11.826Z,45.20
2019-02-03T10:12:00.642Z,36.60
2019-02-03T10:14:49.434Z,44.57
2019-02-03T10:17:30.836Z,40.97
2019-02-03T10:20:38.944Z,47.57
2019-02-03T10:23:27.749Z,44.60
2019-02-03T10:26:18.277Z,44.00
2019-02-03T10:29:07.156Z,42.40
2019-02-03T10:31:56.019Z,47.27
2019-02-03T10:34:44.832Z,39.20
2019-02-03T10:37:33.630Z,46.75
2019-02-03T10:40:42.873Z,41.70
2019-02-03T10:43:31.670Z,38.03
2019-02-03T10:46:20.477Z,41.30
2019-02-03T10:49:09.264Z,41.27
2019-02-03T10:51:58.082Z,37.97
2019-02-03T10:54:46.873Z,36.97
2019-02-03T11:00:50.194Z,35.88
2019-02-03T11:03:40.703Z,27.73
2019-02-03T11:06:29.510Z,30.70
2019-02-03T11:09:18.318Z,31.07
2019-02-03T11:12:07.194Z,36.17
2019-02-03T11:14:48.878Z,34.77
2019-02-03T11:17:37.681Z,29.87
2019-02-03T11:20:47.401Z,41.15
2019-02-03T11:23:55.235Z,34.23
2019-02-03T11:26:36.961Z,28.17
2019-02-03T11:29:25.801Z,23.80
2019-02-03T11:32:14.607Z,32.58
2019-02-03T11:35:03.400Z,27.40
2019-02-03T11:37:52.266Z,31.17
2019-02-03T11:40:41.059Z,42.57
2019-02-03T11:43:29.876Z,27.10
2019-02-03T11:46:20.373Z,27.15
2019-02-03T11:49:09.179Z,31.85
2019-02-03T11:51:59.709Z,25.07
2019-02-03T11:54:48.496Z,25.72
2019-02-03T11:57:37.304Z,28.60
2019-02-03T12:00:47.014Z,21.70
2019-02-03T12:03:35.830Z,25.57
2019-02-03T12:06:24.615Z,26.52
2019-02-03T12:09:13.425Z,27.82
2019-02-03T12:12:02.213Z,30.90
2019-02-03T12:14:51.041Z,26.97
2019-02-03T12:17:40.166Z,29.07
2019-02-03T12:20:30.697Z,32.30
2019-02-03T12:23:19.512Z,27.97
2019-02-03T12:26:10.049Z,24.27
2019-02-03T12:28:51.774Z,26.80
2019-02-03T12:31:40.589Z,21.07
2019-02-03T12:34:29.383Z,32.50
2019-02-03T12:37:18.192Z,19.47
2019-02-03T12:40:27.893Z,22.97
2019-02-03T12:43:18.415Z,25.90
2019-02-03T12:46:07.284Z,24.13
2019-02-03T12:48:58.181Z,29.03
2019-02-03T12:51:46.967Z,25.80
2019-02-03T12:54:37.509Z,31.25
2019-02-03T12:57:26.310Z,21.17
2019-02-03T13:00:36.029Z,21.80
2019-02-03T13:03:25.362Z,18.83
2019-02-03T13:06:15.350Z,15.63
2019-02-03T13:09:25.081Z,18.23
2019-02-03T13:15:32.394Z,18.70
2019-02-03T13:18:21.217Z,18.23
2019-02-03T13:21:10.076Z,16.90
2019-02-03T13:23:59.121Z,18.90
2019-02-03T13:26:47.931Z,19.47
2019-02-03T13:29:36.803Z,22.82
2019-02-03T13:32:25.670Z,23.33
2019-02-03T13:35:33.709Z,17.00
2019-02-03T13:38:22.550Z,15.33
2019-02-03T13:41:11.391Z,15.87
2019-02-03T13:44:21.065Z,16.67
2019-02-03T13:47:09.850Z,18.13
2019-02-03T13:49:58.645Z,19.20
2019-02-03T13:52:49.236Z,15.53
2019-02-03T13:55:38.038Z,10.63
2019-02-03T13:58:36.536Z,13.90
2019-02-03T14:01:17.362Z,11.83
2019-02-03T14:04:06.217Z,12.33
2019-02-03T14:06:55.026Z,13.00
2019-02-03T14:09:43.812Z,18.30
2019-02-03T14:12:32.618Z,12.37
2019-02-03T14:15:21.588Z,15.20
2019-02-03T14:18:03.150Z,15.13
2019-02-03T14:20:51.952Z,16.07
2019-02-03T14:23:40.767Z,14.00
2019-02-03T14:26:29.561Z,14.57
2019-02-03T14:29:20.236Z,15.13
2019-02-03T14:32:08.967Z,14.87
2019-02-03T14:34:59.498Z,10.97
2019-02-03T14:37:48.372Z,15.10
2019-02-03T14:40:39.216Z,14.70
2019-02-03T14:43:28.097Z,13.00
2019-02-03T14:46:16.879Z,14.80
2019-02-03T14:49:05.693Z,18.63
2019-02-03T14:51:54.467Z,17.60
2019-02-03T14:54:43.291Z,16.90
2019-02-03T14:57:32.087Z,18.57
2019-02-03T15:00:41.693Z,18.62
2019-02-03T15:03:32.221Z,12.10
2019-02-03T15:06:21.017Z,9.63
2019-02-03T15:09:12.051Z,11.60
2019-02-03T15:12:00.867Z,12.60
2019-02-03T15:14:49.646Z,19.10
2019-02-03T15:17:38.449Z,11.67
2019-02-03T15:20:28.103Z,14.50
2019-02-03T15:23:16.909Z,10.97
2019-02-03T15:26:05.954Z,17.40
2019-02-03T15:28:54.837Z,15.13
2019-02-03T15:31:43.631Z,22.77
2019-02-03T15:34:32.441Z,28.10
2019-02-03T15:37:21.229Z,16.17
2019-02-03T15:40:30.958Z,12.43
2019-02-03T15:43:25.640Z,11.28
2019-02-03T15:46:12.069Z,14.53
2019-02-03T15:49:01.016Z,15.23
2019-02-03T15:51:49.825Z,18.90
2019-02-03T15:54:38.618Z,12.90
2019-02-03T15:57:30.428Z,13.70
2019-02-03T16:00:38.435Z,11.10
2019-02-03T16:03:27.240Z,11.87
2019-02-03T16:06:16.061Z,12.33
2019-02-03T16:09:25.778Z,19.40
2019-02-03T16:12:14.566Z,14.13
2019-02-03T16:14:56.384Z,12.67
2019-02-03T16:17:45.174Z,9.03
2019-02-03T16:20:33.985Z,10.73
2019-02-03T16:23:22.779Z,12.70
2019-02-03T16:26:11.583Z,20.00
2019-02-03T16:29:00.378Z,23.40
2019-02-03T16:31:49.176Z,13.20
2019-02-03T16:34:37.978Z,24.50
2019-02-03T16:37:26.789Z,8.93
2019-02-03T16:40:34.903Z,9.07
2019-02-03T16:43:23.715Z,10.03
2019-02-03T16:46:12.513Z,15.70
2019-02-03T16:49:01.344Z,12.90
2019-02-03T16:51:50.237Z,16.10
2019-02-03T16:54:39.035Z,11.90
2019-02-03T16:57:27.834Z,14.00
2019-02-03T17:00:37.561Z,10.63
2019-02-03T17:03:28.074Z,9.35
2019-02-03T17:06:17.165Z,12.87
2019-02-03T17:12:16.947Z,18.77
2019-02-03T17:15:26.649Z,8.23
2019-02-03T17:18:17.188Z,12.33
2019-02-03T17:21:05.990Z,9.50
2019-02-03T17:27:02.528Z,12.80
2019-02-03T17:29:51.316Z,14.05
2019-02-03T17:32:40.129Z,13.57
2019-02-03T17:35:30.691Z,12.03
2019-02-03T17:38:19.522Z,12.17
2019-02-03T17:41:10.096Z,14.65
2019-02-03T17:43:58.903Z,16.00
2019-02-03T17:46:47.708Z,22.20
2019-02-03T17:49:36.542Z,10.50
2019-02-03T17:52:25.469Z,16.70
2019-02-03T17:55:33.597Z,12.25
2019-02-03T17:58:22.561Z,13.00
2019-02-03T18:01:11.363Z,10.67
2019-02-03T18:04:01.861Z,9.53
2019-02-03T18:06:41.622Z,13.13
2019-02-03T18:09:30.485Z,8.03
2019-02-03T18:12:19.293Z,19.30
2019-02-03T18:15:28.987Z,13.80
2019-02-03T18:18:17.906Z,18.97
2019-02-03T18:21:06.683Z,10.80
2019-02-03T18:23:55.554Z,14.80
2019-02-03T18:26:44.368Z,27.62
2019-02-03T18:29:33.153Z,14.27
2019-02-03T18:32:21.955Z,17.60
2019-02-03T18:35:31.656Z,12.00
2019-02-03T18:38:22.303Z,16.23
2019-02-03T18:41:11.142Z,24.43
2019-02-03T18:43:59.997Z,12.80
2019-02-03T18:46:48.909Z,11.00
2019-02-03T18:49:37.767Z,14.00
2019-02-03T18:52:26.640Z,19.27
2019-02-03T18:55:37.716Z,24.82
2019-02-03T18:58:18.948Z,13.50
2019-02-03T19:01:07.822Z,15.83
2019-02-03T19:03:56.618Z,9.43
2019-02-03T19:06:38.157Z,18.67
2019-02-03T19:09:26.952Z,20.75
2019-02-03T19:12:15.773Z,15.60
2019-02-03T19:18:19.929Z,19.57
2019-02-03T19:21:08.741Z,23.10
2019-02-03T19:23:57.613Z,22.73
2019-02-03T19:26:46.362Z,27.60
2019-02-03T19:29:35.172Z,15.60
2019-02-03T19:32:23.959Z,21.47
2019-02-03T19:38:28.931Z,10.50
2019-02-03T19:41:17.719Z,12.87
2019-02-03T19:44:06.529Z,15.70
2019-02-03T19:46:57.032Z,12.60
2019-02-03T19:49:46.582Z,13.37
2019-02-03T19:52:36.359Z,25.20
2019-02-03T19:55:25.178Z,16.80
2019-02-03T19:58:13.984Z,18.70
2019-02-03T20:01:02.778Z,10.13
2019-02-03T20:03:51.611Z,9.20
2019-02-03T20:06:31.348Z,10.50
2019-02-03T20:09:20.150Z,12.40
2019-02-03T20:12:08.972Z,16.27
2019-02-03T20:14:57.783Z,10.23
2019-02-03T20:17:48.418Z,15.60
2019-02-03T20:20:56.617Z,9.87
2019-02-03T20:23:45.513Z,9.60
2019-02-03T20:26:34.296Z,15.50
2019-02-03T20:29:23.129Z,8.50
2019-02-03T20:32:11.911Z,6.80
2019-02-03T20:35:00.808Z,12.00
2019-02-03T20:37:49.703Z,13.10
2019-02-03T20:41:01.128Z,11.05
2019-02-03T20:43:49.924Z,11.40
2019-02-03T20:46:38.720Z,13.93
2019-02-03T20:49:27.510Z,13.23
2019-02-03T20:52:16.326Z,31.80
2019-02-03T20:55:26.338Z,15.57
2019-02-03T20:58:08.496Z,12.10
2019-02-03T21:00:57.378Z,15.70
2019-02-03T21:03:46.170Z,11.27
2019-02-03T21:06:35.023Z,9.87
2019-02-03T21:09:23.820Z,10.45
2019-02-03T21:12:12.635Z,9.70
2019-02-03T21:15:01.727Z,12.00
2019-02-03T21:17:50.541Z,18.60
2019-02-03T21:20:39.310Z,12.50
2019-02-03T21:23:28.120Z,19.33
2019-02-03T21:26:16.895Z,19.65
2019-02-03T21:29:05.781Z,19.37
2019-02-03T21:31:54.567Z,17.30
2019-02-03T21:34:43.388Z,20.20
2019-02-03T21:37:32.181Z,15.97
2019-02-03T21:40:41.896Z,19.77
2019-02-03T21:43:30.688Z,17.00
2019-02-03T21:46:19.506Z,22.50
2019-02-03T21:49:08.590Z,19.40
2019-02-03T21:51:57.403Z,16.10
2019-02-03T21:54:46.279Z,19.42
2019-02-03T21:57:35.210Z,24.33
2019-02-03T22:00:23.209Z,18.50
2019-02-03T22:03:12.032Z,17.70
2019-02-03T22:06:00.821Z,15.93
2019-02-03T22:08:51.333Z,25.77
2019-02-03T22:11:40.145Z,18.57
2019-02-03T22:14:30.754Z,32.33
2019-02-03T22:17:19.553Z,23.23
2019-02-03T22:20:29.267Z,33.40
2019-02-03T22:23:18.055Z,17.93
2019-02-03T22:26:06.879Z,25.00
2019-02-03T22:28:55.663Z,23.00
2019-02-03T22:31:44.469Z,20.00
2019-02-03T22:34:33.261Z,51.13
2019-02-03T22:37:22.253Z,21.02
2019-02-03T22:40:31.956Z,22.35
2019-02-03T22:43:20.772Z,24.13
2019-02-03T22:46:09.624Z,22.83
2019-02-03T22:48:58.525Z,24.33
2019-02-03T22:51:47.360Z,18.70
2019-02-03T22:54:36.224Z,19.70
2019-02-03T22:57:25.172Z,19.17
2019-02-03T23:00:54.300Z,20.75
2019-02-03T23:03:43.751Z,28.02
2019-02-03T23:06:32.642Z,19.77
2019-02-03T23:12:17.269Z,23.03
2019-02-03T23:15:27.025Z,32.27
2019-02-03T23:18:09.695Z,37.13
2019-02-03T23:20:58.561Z,23.77
2019-02-03T23:23:47.458Z,22.97
2019-02-03T23:26:36.451Z,24.50
2019-02-03T23:29:25.268Z,20.90
2019-02-03T23:32:14.064Z,17.40
2019-02-03T23:35:02.880Z,18.60
2019-02-03T23:37:53.418Z,20.07
2019-02-03T23:40:42.208Z,18.05
2019-02-03T23:43:31.025Z,19.23
2019-02-03T23:46:29.386Z,17.47
2019-02-03T23:49:10.357Z,22.80
2019-02-03T23:51:59.150Z,19.90
2019-02-03T23:54:49.812Z,21.07
2019-02-03T23:57:38.478Z,17.60
